キエフ/ボリースピリ の空港の天気 - METARとTAF

ボリースピリ国際空港(キエフ) ( UKBB / KBP ) - ウクライナ ボリスピリ (キエフ近郊)
飛行場実況気象(Metar)
観測時間08/11 09:30 EEST (08/11 06:30 UTC)
風向・風速北北西 3m/s
視程10km以上
天気現象
なし
気温23℃
湿度69%
気圧1015hPa
METARUKBB 110630Z 33003MPS 300V010 CAVOK 23/17 Q1015 R36R/CLRD// NOSIG
過去の天気等 Google飛行場航空写真 Wunderground天気予報

過去48時間のMETAR

飛行場予報(TAF)
発表時間: 8/11 08:00 EEST (8/11 05:00 UTC)
予報対象時間: 11日9時 EEST ~ 12日9時 EEST
風向・風速北西 3m/s 瞬間風速 8m/s
視程10km以上
全天の4割程度の雲 雲底高度 910m
11日10時 EEST ~ 11日12時 EEST に徐々に
風向・風速北 5m/s 瞬間風速 10m/s
11日12時 EEST ~ 11日21時 EEST に一時的に
風向・風速不定 10m/s 瞬間風速 17m/s
視程2100m
天気現象弱い雷雨 スコール
全天の8割程度の雲 雲底高度 210m
全天の8割程度の積乱雲 雲底高度 760m
11日21時 EEST ~ 12日9時 EEST に一時的に
風向・風速北 4m/s 瞬間風速 9m/s
視程1600m
天気現象弱いしゅう雨 もや
全天の8割程度の雲 雲底高度 180m
全天の4割程度の積乱雲 雲底高度 760m
TAF UKBB 110500Z 1106/1206 32003G08MPS 9999 SCT030 TX26/1112Z TN12/1203Z
BECMG 1107/1109 35005G10MPS
TEMPO 1109/1118 VRB10G17MPS 2100 -TSRA SQ BKN007 BKN025CB
TEMPO 1118/1206 01004G09MPS 1600 -SHRA BR BKN006 SCT025CB